createdAt,value
2022-09-12T00:01:33.603Z,13.45
2022-09-12T00:04:02.588Z,13.45
2022-09-12T00:06:34.281Z,13.46
2022-09-12T00:09:08.951Z,13.47
2022-09-12T00:11:43.982Z,13.48
2022-09-12T00:14:16.438Z,13.49
2022-09-12T00:16:47.571Z,13.51
2022-09-12T00:19:16.452Z,13.53
2022-09-12T00:21:46.595Z,13.54
2022-09-12T00:24:14.208Z,13.56
2022-09-12T00:26:43.210Z,13.57
2022-09-12T00:29:21.740Z,13.58
2022-09-12T00:31:49.945Z,13.61
2022-09-12T00:34:18.155Z,13.63
2022-09-12T00:36:45.718Z,13.64
2022-09-12T00:39:16.944Z,13.65
2022-09-12T00:41:47.322Z,13.66
2022-09-12T00:44:16.934Z,13.67
2022-09-12T00:46:56.168Z,13.67
2022-09-12T00:49:41.944Z,13.66
2022-09-12T00:52:26.518Z,13.65
2022-09-12T00:55:13.179Z,13.64
2022-09-12T00:57:50.131Z,13.65
2022-09-12T01:00:23.521Z,13.64
2022-09-12T01:03:21.343Z,13.64
2022-09-12T01:06:09.969Z,13.64
2022-09-12T01:08:40.827Z,13.62
2022-09-12T01:11:13.730Z,13.61
2022-09-12T01:13:44.054Z,13.59
2022-09-12T01:16:13.542Z,13.57
2022-09-12T01:19:12.693Z,13.57
2022-09-12T01:22:04.928Z,13.56
2022-09-12T01:25:02.275Z,13.51
2022-09-12T01:28:06.302Z,13.48
2022-09-12T01:31:24.652Z,13.47
2022-09-12T01:34:28.379Z,13.43
2022-09-12T01:37:25.921Z,13.40
2022-09-12T01:40:23.796Z,13.39
2022-09-12T01:43:18.430Z,13.39
2022-09-12T01:46:07.851Z,13.39
2022-09-12T01:48:41.087Z,13.38
2022-09-12T01:51:35.597Z,13.38
2022-09-12T01:54:38.408Z,13.36
2022-09-12T01:57:19.153Z,13.34
2022-09-12T01:59:54.719Z,13.35
2022-09-12T02:02:36.394Z,13.34
2022-09-12T02:05:20.403Z,13.34
2022-09-12T02:07:56.868Z,13.33
2022-09-12T02:10:32.557Z,13.31
2022-09-12T02:13:19.747Z,13.30
2022-09-12T02:15:58.542Z,13.29
2022-09-12T02:18:29.767Z,13.28
2022-09-12T02:20:59.880Z,13.27
2022-09-12T02:23:35.147Z,13.25
2022-09-12T02:26:28.906Z,13.23
2022-09-12T02:29:00.103Z,13.21
2022-09-12T02:31:47.289Z,13.21
2022-09-12T02:34:25.392Z,13.19
2022-09-12T02:37:38.453Z,13.16
2022-09-12T02:40:09.953Z,13.13
2022-09-12T02:42:42.274Z,13.12
2022-09-12T02:45:12.011Z,13.10
2022-09-12T02:48:17.759Z,13.11
2022-09-12T02:50:47.398Z,13.10
2022-09-12T02:53:15.035Z,13.10
2022-09-12T02:55:44.330Z,13.11
2022-09-12T02:58:19.010Z,13.11
2022-09-12T03:00:59.699Z,13.11
2022-09-12T03:03:50.003Z,13.11
2022-09-12T03:06:28.685Z,13.13
2022-09-12T03:09:25.927Z,13.14
2022-09-12T03:12:08.488Z,13.14
2022-09-12T03:14:47.434Z,13.15
2022-09-12T03:17:41.648Z,13.17
2022-09-12T03:20:21.035Z,13.20
2022-09-12T03:22:56.031Z,13.21
2022-09-12T03:25:32.413Z,13.21
2022-09-12T03:28:07.751Z,13.22
2022-09-12T03:30:41.537Z,13.22
2022-09-12T03:33:16.601Z,13.22
2022-09-12T03:35:44.930Z,13.22
2022-09-12T03:38:12.350Z,13.20
2022-09-12T03:40:39.787Z,13.18
2022-09-12T03:43:09.940Z,13.12
2022-09-12T03:45:37.784Z,13.16
2022-09-12T03:48:06.956Z,13.18
2022-09-12T03:50:35.550Z,13.19
2022-09-12T03:53:04.009Z,13.21
2022-09-12T03:55:30.930Z,13.22
2022-09-12T03:58:01.091Z,13.21
2022-09-12T04:00:28.421Z,13.19
2022-09-12T04:02:58.316Z,13.17
2022-09-12T04:05:26.031Z,13.17
2022-09-12T04:07:53.715Z,13.18
2022-09-12T04:10:20.969Z,13.17
2022-09-12T04:12:49.968Z,13.17
2022-09-12T04:15:19.341Z,13.16
2022-09-12T04:17:46.859Z,13.17
2022-09-12T04:20:15.161Z,13.19
2022-09-12T04:22:44.293Z,13.20
2022-09-12T04:25:13.292Z,13.19
2022-09-12T04:27:43.515Z,13.18
2022-09-12T04:30:12.610Z,13.18
2022-09-12T04:32:40.965Z,13.17
2022-09-12T04:35:07.865Z,13.18
2022-09-12T04:37:36.491Z,13.19
2022-09-12T04:40:03.742Z,13.19
2022-09-12T04:42:32.726Z,13.21
2022-09-12T04:45:00.765Z,13.23
2022-09-12T04:47:28.939Z,13.25
2022-09-12T04:49:59.572Z,13.26
2022-09-12T04:52:27.433Z,13.26
2022-09-12T04:54:55.709Z,13.28
2022-09-12T04:57:24.450Z,13.29
2022-09-12T04:59:51.375Z,13.30
2022-09-12T05:02:18.020Z,13.32
2022-09-12T05:04:46.455Z,13.36
2022-09-12T05:07:16.650Z,13.36
2022-09-12T05:09:43.520Z,13.35
2022-09-12T05:12:12.946Z,13.43
2022-09-12T05:14:41.361Z,13.47
2022-09-12T05:17:08.940Z,13.50
2022-09-12T05:19:36.505Z,13.54
2022-09-12T05:22:04.466Z,13.57
2022-09-12T05:24:32.095Z,13.60
2022-09-12T05:27:00.224Z,13.64
2022-09-12T05:29:29.295Z,13.66
2022-09-12T05:31:59.138Z,13.69
2022-09-12T05:34:27.317Z,13.73
2022-09-12T05:36:53.940Z,13.77
2022-09-12T05:39:22.416Z,13.81
2022-09-12T05:41:50.368Z,13.84
2022-09-12T05:44:17.678Z,13.90
2022-09-12T05:46:50.232Z,13.95
2022-09-12T05:49:18.714Z,14.02
2022-09-12T05:51:46.714Z,14.11
2022-09-12T05:54:18.122Z,14.17
2022-09-12T05:56:45.180Z,14.23
2022-09-12T05:59:19.354Z,14.28
2022-09-12T06:01:47.219Z,14.40
2022-09-12T06:04:15.873Z,14.50
2022-09-12T06:06:47.095Z,14.57
2022-09-12T06:09:16.521Z,14.64
2022-09-12T06:11:44.965Z,14.67
2022-09-12T06:14:14.589Z,14.68
2022-09-12T06:16:41.553Z,14.69
2022-09-12T06:19:20.206Z,14.73
2022-09-12T06:21:48.958Z,14.76
2022-09-12T06:24:17.399Z,14.74
2022-09-12T06:26:44.958Z,14.72
2022-09-12T06:29:12.620Z,14.71
2022-09-12T06:31:41.050Z,14.71
2022-09-12T06:34:10.820Z,14.71
2022-09-12T06:36:45.277Z,14.74
2022-09-12T06:39:22.942Z,14.76
2022-09-12T06:41:51.387Z,14.76
2022-09-12T06:44:23.337Z,14.75
2022-09-12T06:46:50.059Z,14.75
2022-09-12T06:49:19.549Z,14.77
2022-09-12T06:51:52.744Z,14.81
2022-09-12T06:54:21.770Z,14.85
2022-09-12T06:56:49.907Z,14.89
2022-09-12T06:59:16.587Z,14.91
2022-09-12T07:01:44.216Z,14.92
2022-09-12T07:04:11.096Z,14.94
2022-09-12T07:06:40.028Z,14.98
2022-09-12T07:09:08.630Z,15.01
2022-09-12T07:11:37.403Z,15.03
2022-09-12T07:14:12.707Z,15.04
2022-09-12T07:16:39.766Z,15.05
2022-09-12T07:19:07.481Z,15.08
2022-09-12T07:21:39.105Z,15.11
2022-09-12T07:24:08.185Z,15.15
2022-09-12T07:26:36.495Z,15.19
2022-09-12T07:29:32.207Z,15.22
2022-09-12T07:31:50.018Z,15.25
2022-09-12T07:34:17.313Z,15.25
2022-09-12T07:36:44.627Z,15.31
2022-09-12T07:39:12.976Z,15.36
2022-09-12T07:41:39.463Z,15.47
2022-09-12T07:44:07.571Z,15.60
2022-09-12T07:46:35.048Z,15.67
2022-09-12T07:49:02.966Z,15.74
2022-09-12T07:51:31.183Z,15.81
2022-09-12T07:53:58.584Z,15.89
2022-09-12T07:56:30.235Z,15.99
2022-09-12T07:58:58.875Z,16.06
2022-09-12T08:01:26.294Z,16.16
2022-09-12T08:03:56.339Z,16.27
2022-09-12T08:06:24.573Z,16.40
2022-09-12T08:08:54.227Z,16.55
2022-09-12T08:11:23.752Z,16.65
2022-09-12T08:13:55.402Z,16.74
2022-09-12T08:16:27.789Z,16.81
2022-09-12T08:18:55.242Z,16.86
2022-09-12T08:21:27.048Z,16.96
2022-09-12T08:23:56.588Z,17.14
2022-09-12T08:26:24.157Z,17.34
2022-09-12T08:28:52.681Z,17.53
2022-09-12T08:31:21.048Z,17.70
2022-09-12T08:33:48.450Z,17.75
2022-09-12T08:36:22.292Z,17.77
2022-09-12T08:38:59.084Z,17.75
2022-09-12T08:41:40.972Z,17.64
2022-09-12T08:44:26.282Z,17.59
2022-09-12T08:47:15.464Z,17.59
2022-09-12T08:49:52.470Z,17.66
2022-09-12T08:52:23.472Z,17.75
2022-09-12T08:54:50.109Z,17.88
2022-09-12T08:57:19.653Z,17.99
2022-09-12T08:59:47.828Z,18.17
2022-09-12T09:03:02.516Z,18.28
2022-09-12T09:05:47.081Z,18.30
2022-09-12T09:08:37.601Z,18.15
2022-09-12T09:11:07.117Z,17.98
2022-09-12T09:14:18.741Z,17.88
2022-09-12T09:16:50.036Z,17.76
2022-09-12T09:19:24.897Z,17.68
2022-09-12T09:22:02.827Z,17.65
2022-09-12T09:24:52.864Z,17.62
2022-09-12T09:27:39.751Z,17.65
2022-09-12T09:30:19.583Z,17.73
2022-09-12T09:32:53.041Z,17.80
2022-09-12T09:35:22.506Z,17.81
2022-09-12T09:38:05.557Z,17.86
2022-09-12T09:40:50.817Z,17.96
2022-09-12T09:43:23.949Z,18.03
2022-09-12T09:45:52.477Z,18.04
2022-09-12T09:48:27.417Z,18.12
2022-09-12T09:50:56.809Z,18.27
2022-09-12T09:53:45.868Z,18.42
2022-09-12T09:56:30.000Z,18.59
2022-09-12T09:58:57.747Z,18.69
2022-09-12T10:01:27.299Z,18.85
2022-09-12T10:03:55.717Z,19.02
2022-09-12T10:06:31.216Z,19.09
2022-09-12T10:09:16.958Z,19.19
2022-09-12T10:11:46.065Z,19.31
2022-09-12T10:14:37.156Z,19.38
2022-09-12T10:17:24.451Z,19.33
2022-09-12T10:20:04.841Z,19.29
2022-09-12T10:22:46.837Z,19.24
2022-09-12T10:25:17.657Z,19.23
2022-09-12T10:27:44.286Z,19.22
2022-09-12T10:30:14.031Z,19.23
2022-09-12T10:32:43.508Z,19.32
2022-09-12T10:35:21.218Z,19.46
2022-09-12T10:37:57.843Z,19.52
2022-09-12T10:40:27.913Z,19.47
2022-09-12T10:42:59.541Z,19.46
2022-09-12T10:45:32.050Z,19.45
2022-09-12T10:48:05.459Z,19.46
2022-09-12T10:50:41.288Z,19.56
2022-09-12T10:53:18.290Z,19.70
2022-09-12T10:56:12.123Z,19.74
2022-09-12T10:58:59.259Z,19.83
2022-09-12T11:01:31.703Z,19.95
2022-09-12T11:04:16.264Z,20.03
2022-09-12T11:06:51.535Z,20.04
2022-09-12T11:09:43.060Z,20.08
2022-09-12T11:12:25.195Z,20.15
2022-09-12T11:15:02.134Z,20.22
2022-09-12T11:17:49.648Z,20.29
2022-09-12T11:20:25.964Z,20.29
2022-09-12T11:23:11.446Z,20.17
2022-09-12T11:26:03.893Z,20.12
2022-09-12T11:28:36.988Z,20.18
2022-09-12T11:31:48.867Z,20.29
2022-09-12T11:34:45.118Z,20.48
2022-09-12T11:37:23.434Z,20.64
2022-09-12T11:39:55.412Z,20.66
2022-09-12T11:42:30.022Z,20.62
2022-09-12T11:45:13.193Z,20.78
2022-09-12T11:47:41.043Z,21.11
2022-09-12T11:50:22.769Z,21.38
2022-09-12T11:52:51.005Z,21.43
2022-09-12T11:55:22.933Z,21.30
2022-09-12T11:58:03.117Z,21.21
2022-09-12T12:00:58.553Z,21.10
2022-09-12T12:03:36.624Z,21.04
2022-09-12T12:06:20.824Z,20.89
2022-09-12T12:08:49.967Z,20.71
2022-09-12T12:11:32.245Z,20.54
2022-09-12T12:14:07.491Z,20.42
2022-09-12T12:16:38.105Z,20.41
2022-09-12T12:19:31.788Z,20.46
2022-09-12T12:22:06.514Z,20.52
2022-09-12T12:24:37.075Z,20.60
2022-09-12T12:27:21.906Z,20.68
2022-09-12T12:29:48.879Z,20.76
2022-09-12T12:32:16.207Z,20.94
2022-09-12T12:34:45.041Z,21.16
2022-09-12T12:37:27.463Z,21.41
2022-09-12T12:40:22.765Z,21.74
2022-09-12T12:42:50.009Z,22.32
2022-09-12T12:45:19.330Z,22.62
2022-09-12T12:47:49.659Z,22.91
2022-09-12T12:50:15.902Z,23.08
2022-09-12T12:52:45.095Z,23.15
2022-09-12T12:55:25.800Z,23.05
2022-09-12T12:57:55.351Z,22.86
2022-09-12T13:00:31.686Z,22.64
2022-09-12T13:03:09.133Z,22.49
2022-09-12T13:05:47.208Z,22.37
2022-09-12T13:08:16.340Z,22.18
2022-09-12T13:11:15.041Z,21.90
2022-09-12T13:13:53.030Z,21.53
2022-09-12T13:16:55.289Z,21.22
2022-09-12T13:19:28.589Z,20.92
2022-09-12T13:22:07.044Z,20.72
2022-09-12T13:24:43.162Z,20.57
2022-09-12T13:27:24.781Z,20.48
2022-09-12T13:30:08.822Z,20.45
2022-09-12T13:32:35.444Z,20.37
2022-09-12T13:35:22.272Z,20.32
2022-09-12T13:38:02.546Z,20.26
2022-09-12T13:41:01.090Z,20.19
2022-09-12T13:43:43.868Z,20.16
2022-09-12T13:46:15.970Z,20.16
2022-09-12T13:48:43.608Z,20.17
2022-09-12T13:51:24.489Z,20.22
2022-09-12T13:53:55.538Z,20.30
2022-09-12T13:56:22.979Z,20.43
2022-09-12T13:58:57.628Z,20.56
2022-09-12T14:01:37.127Z,20.71
2022-09-12T14:04:32.190Z,20.88
2022-09-12T14:07:01.681Z,21.07
2022-09-12T14:09:32.173Z,21.20
2022-09-12T14:12:00.386Z,21.52
2022-09-12T14:14:35.962Z,21.80
2022-09-12T14:17:32.161Z,22.16
2022-09-12T14:20:11.112Z,22.65
2022-09-12T14:22:38.287Z,22.78
2022-09-12T14:25:09.580Z,22.85
2022-09-12T14:27:46.733Z,22.82
2022-09-12T14:30:32.195Z,22.69
2022-09-12T14:33:10.779Z,22.48
2022-09-12T14:35:41.424Z,22.28
2022-09-12T14:38:23.212Z,22.08
2022-09-12T14:41:05.581Z,21.90
2022-09-12T14:43:38.372Z,21.71
2022-09-12T14:46:19.242Z,21.53
2022-09-12T14:48:50.667Z,21.37
2022-09-12T14:51:30.438Z,21.22
2022-09-12T14:53:58.845Z,21.11
2022-09-12T14:56:54.679Z,21.08
2022-09-12T14:59:36.047Z,21.01
2022-09-12T15:02:22.545Z,20.95
2022-09-12T15:04:54.640Z,20.85
2022-09-12T15:07:24.655Z,20.71
2022-09-12T15:09:51.699Z,20.60
2022-09-12T15:12:18.442Z,20.50
2022-09-12T15:14:44.973Z,20.40
2022-09-12T15:17:11.251Z,20.31
2022-09-12T15:19:37.852Z,20.26
2022-09-12T15:22:04.629Z,20.23
2022-09-12T15:24:31.127Z,20.16
2022-09-12T15:26:58.028Z,20.13
2022-09-12T15:29:24.391Z,20.12
2022-09-12T15:31:51.434Z,20.12
2022-09-12T15:34:19.042Z,20.11
2022-09-12T15:36:45.389Z,20.09
2022-09-12T15:39:11.821Z,20.10
2022-09-12T15:41:39.335Z,20.12
2022-09-12T15:44:10.442Z,20.16
2022-09-12T15:46:37.596Z,20.18
2022-09-12T15:49:04.386Z,20.14
2022-09-12T15:51:31.261Z,20.10
2022-09-12T15:53:57.666Z,20.05
2022-09-12T15:56:24.312Z,19.98
2022-09-12T15:58:58.687Z,19.89
2022-09-12T16:01:27.420Z,19.78
2022-09-12T16:03:54.090Z,19.67
2022-09-12T16:06:21.561Z,19.58
2022-09-12T16:08:48.477Z,19.48
2022-09-12T16:11:27.208Z,19.35
2022-09-12T16:13:56.520Z,19.22
2022-09-12T16:16:23.529Z,19.09
2022-09-12T16:18:50.115Z,18.97
2022-09-12T16:21:17.161Z,18.83
2022-09-12T16:23:44.579Z,18.72
2022-09-12T16:26:11.018Z,18.65
2022-09-12T16:28:38.833Z,18.57
2022-09-12T16:31:07.249Z,18.50
2022-09-12T16:33:34.179Z,18.42
2022-09-12T16:36:06.834Z,18.34
2022-09-12T16:38:35.600Z,18.26
2022-09-12T16:41:04.969Z,18.19
2022-09-12T16:43:34.785Z,18.11
2022-09-12T16:46:02.761Z,18.06
2022-09-12T16:48:29.699Z,18.01
2022-09-12T16:51:03.368Z,17.96
2022-09-12T16:53:34.637Z,17.90
2022-09-12T16:56:01.670Z,17.83
2022-09-12T16:58:32.216Z,17.79
2022-09-12T17:01:04.668Z,17.73
2022-09-12T17:03:31.441Z,17.67
2022-09-12T17:06:15.901Z,17.64
2022-09-12T17:08:45.015Z,17.59
2022-09-12T17:11:24.648Z,17.51
2022-09-12T17:14:07.875Z,17.44
2022-09-12T17:16:42.862Z,17.39
2022-09-12T17:19:14.365Z,17.33
2022-09-12T17:21:41.055Z,17.28
2022-09-12T17:24:07.639Z,17.23
2022-09-12T17:26:34.536Z,17.18
2022-09-12T17:29:01.404Z,17.13
2022-09-12T17:31:28.543Z,17.07
2022-09-12T17:33:57.802Z,17.01
2022-09-12T17:36:25.750Z,16.96
2022-09-12T17:38:53.772Z,16.91
2022-09-12T17:41:23.134Z,16.88
2022-09-12T17:43:52.162Z,16.85
2022-09-12T17:46:20.528Z,16.84
2022-09-12T17:48:55.030Z,16.83
2022-09-12T17:51:24.333Z,16.81
2022-09-12T17:54:09.961Z,16.78
2022-09-12T17:56:36.496Z,16.72
2022-09-12T17:59:04.787Z,16.68
2022-09-12T18:01:50.109Z,16.63
2022-09-12T18:04:17.352Z,16.56
2022-09-12T18:06:49.740Z,16.51
2022-09-12T18:09:24.686Z,16.43
2022-09-12T18:11:52.245Z,16.39
2022-09-12T18:14:19.848Z,16.34
2022-09-12T18:16:47.864Z,16.29
2022-09-12T18:19:15.621Z,16.25
2022-09-12T18:21:41.980Z,16.20
2022-09-12T18:24:09.534Z,16.16
2022-09-12T18:26:39.375Z,16.13
2022-09-12T18:29:06.412Z,16.10
2022-09-12T18:31:33.745Z,16.07
2022-09-12T18:34:00.489Z,16.03
2022-09-12T18:36:27.490Z,16.00
2022-09-12T18:38:54.703Z,15.95
2022-09-12T18:41:22.772Z,15.88
2022-09-12T18:43:54.058Z,15.82
2022-09-12T18:46:21.055Z,15.76
2022-09-12T18:48:47.594Z,15.71
2022-09-12T18:51:21.141Z,15.67
2022-09-12T18:53:54.644Z,15.61
2022-09-12T18:56:32.573Z,15.57
2022-09-12T18:59:01.693Z,15.53
2022-09-12T19:01:32.790Z,15.49
2022-09-12T19:04:06.477Z,15.45
2022-09-12T19:06:40.747Z,15.40
2022-09-12T19:09:08.650Z,15.33
2022-09-12T19:11:41.904Z,15.27
2022-09-12T19:14:08.326Z,15.22
2022-09-12T19:16:35.184Z,15.16
2022-09-12T19:19:02.628Z,15.11
2022-09-12T19:21:30.335Z,15.05
2022-09-12T19:24:03.901Z,14.98
2022-09-12T19:26:31.691Z,14.90
2022-09-12T19:29:01.902Z,14.82
2022-09-12T19:31:30.014Z,14.76
2022-09-12T19:34:01.347Z,14.73
2022-09-12T19:36:44.251Z,14.71
2022-09-12T19:39:13.110Z,14.68
2022-09-12T19:41:39.769Z,14.67
2022-09-12T19:44:06.423Z,14.65
2022-09-12T19:46:33.501Z,14.62
2022-09-12T19:49:00.741Z,14.56
2022-09-12T19:51:27.338Z,14.51
2022-09-12T19:53:55.185Z,14.46
2022-09-12T19:56:24.689Z,14.41
2022-09-12T19:58:56.119Z,14.36
2022-09-12T20:01:29.654Z,14.34
2022-09-12T20:03:57.294Z,14.28
2022-09-12T20:06:25.788Z,14.24
2022-09-12T20:08:54.696Z,14.19
2022-09-12T20:11:24.122Z,14.16
2022-09-12T20:13:51.097Z,14.15
2022-09-12T20:16:22.437Z,14.15
2022-09-12T20:18:59.810Z,14.13
2022-09-12T20:21:32.444Z,14.10
2022-09-12T20:24:08.589Z,14.05
2022-09-12T20:26:35.923Z,13.99
2022-09-12T20:29:04.969Z,13.92
2022-09-12T20:31:33.224Z,13.91
2022-09-12T20:33:59.922Z,13.88
2022-09-12T20:36:27.206Z,13.85
2022-09-12T20:39:00.610Z,13.87
2022-09-12T20:41:29.045Z,13.89
2022-09-12T20:43:56.378Z,13.85
2022-09-12T20:46:27.053Z,13.85
2022-09-12T20:48:53.949Z,13.82
2022-09-12T20:51:21.875Z,13.80
2022-09-12T20:53:56.893Z,13.79
2022-09-12T20:56:26.555Z,13.79
2022-09-12T20:58:54.311Z,13.79
2022-09-12T21:01:21.830Z,13.80
2022-09-12T21:03:48.987Z,13.81
2022-09-12T21:06:18.580Z,13.81
2022-09-12T21:08:47.371Z,13.79
2022-09-12T21:11:15.068Z,13.78
2022-09-12T21:13:42.531Z,13.77
2022-09-12T21:16:15.193Z,13.74
2022-09-12T21:18:42.391Z,13.70
2022-09-12T21:21:12.978Z,13.66
2022-09-12T21:23:41.115Z,13.61
2022-09-12T21:26:09.112Z,13.56
2022-09-12T21:28:39.455Z,13.53
2022-09-12T21:31:06.452Z,13.48
2022-09-12T21:33:33.672Z,13.41
2022-09-12T21:36:02.975Z,13.35
2022-09-12T21:38:31.609Z,13.28
2022-09-12T21:41:10.176Z,13.23
2022-09-12T21:43:38.180Z,13.22
2022-09-12T21:46:05.602Z,13.20
2022-09-12T21:48:32.388Z,13.18
2022-09-12T21:50:59.155Z,13.14
2022-09-12T21:53:25.721Z,13.12
2022-09-12T21:55:52.865Z,13.09
2022-09-12T21:58:20.125Z,13.06
2022-09-12T22:00:47.445Z,13.02
2022-09-12T22:03:15.315Z,12.99
2022-09-12T22:05:42.633Z,12.95
2022-09-12T22:08:10.795Z,12.90
2022-09-12T22:10:38.146Z,12.87
2022-09-12T22:13:06.971Z,12.83
2022-09-12T22:15:40.403Z,12.85
2022-09-12T22:18:08.113Z,12.85
2022-09-12T22:20:36.200Z,12.85
2022-09-12T22:23:25.268Z,12.83
2022-09-12T22:25:55.477Z,12.77
2022-09-12T22:28:25.007Z,12.76
2022-09-12T22:30:53.920Z,12.75
2022-09-12T22:33:20.862Z,12.73
2022-09-12T22:35:47.919Z,12.72
2022-09-12T22:38:15.634Z,12.71
2022-09-12T22:40:42.473Z,12.71
2022-09-12T22:43:09.512Z,12.69
2022-09-12T22:45:35.987Z,12.67
2022-09-12T22:48:06.192Z,12.64
2022-09-12T22:50:35.937Z,12.63
2022-09-12T22:53:02.589Z,12.62
2022-09-12T22:55:29.471Z,12.59
2022-09-12T22:57:56.459Z,12.57
2022-09-12T23:00:23.816Z,12.55
2022-09-12T23:02:50.123Z,12.52
2022-09-12T23:05:16.721Z,12.50
2022-09-12T23:07:45.540Z,12.48
2022-09-12T23:10:12.753Z,12.45
2022-09-12T23:12:39.429Z,12.44
2022-09-12T23:15:08.377Z,12.42
2022-09-12T23:17:36.523Z,12.39
2022-09-12T23:20:04.515Z,12.37
2022-09-12T23:22:30.846Z,12.34
2022-09-12T23:24:57.669Z,12.32
2022-09-12T23:27:27.518Z,12.30
2022-09-12T23:29:54.607Z,12.27
2022-09-12T23:32:23.209Z,12.23
2022-09-12T23:34:50.227Z,12.18
2022-09-12T23:37:17.605Z,12.14
2022-09-12T23:39:44.611Z,12.08
2022-09-12T23:42:11.608Z,11.96
2022-09-12T23:44:38.895Z,11.99
2022-09-12T23:47:08.087Z,11.95
2022-09-12T23:49:35.343Z,11.91
2022-09-12T23:52:04.252Z,11.87
2022-09-12T23:54:30.865Z,11.84
2022-09-12T23:57:00.859Z,11.79
2022-09-12T23:59:32.433Z,11.74
